Time;durP1;ratioP1;P1;durP2;ratioP2;P2;SDS_P1;SDS_P2;PMS_P1;PMS_P2;Temp;Humidity;BMP_temperature;BMP_pressure;BME280_temperature;BME280_humidity;BME280_pressure;Samples;Min_cycle;Max_cycle;Signal;HPM_P1;HPM_P2
2023/10/21 00:00:21;;;;;;;49.90;26.20;;;13.10;99.90;;;;;;5081385;28;20039;-65
2023/10/21 00:02:47;;;;;;;45.35;24.38;;;13.10;99.90;;;;;;5109443;28;20435;-65
2023/10/21 00:05:12;;;;;;;46.80;25.15;;;13.10;99.90;;;;;;5098861;28;20035;-65
2023/10/21 00:07:38;;;;;;;44.97;25.38;;;13.10;99.90;;;;;;5108154;28;20118;-65
2023/10/21 00:10:06;;;;;;;46.85;25.95;;;13.10;99.90;;;;;;5096128;28;20028;-65
2023/10/21 00:12:33;;;;;;;45.00;26.10;;;13.10;99.90;;;;;;5103854;28;20057;-65
2023/10/21 00:14:58;;;;;;;49.28;26.67;;;13.10;99.90;;;;;;5110542;28;20418;-64
2023/10/21 00:17:27;;;;;;;44.67;26.95;;;13.10;99.90;;;;;;5106608;28;20027;-65
2023/10/21 00:19:52;;;;;;;52.85;27.38;;;13.10;99.90;;;;;;5096366;28;20068;-66
2023/10/21 00:22:18;;;;;;;46.10;26.83;;;13.10;99.90;;;;;;5108636;28;20063;-65
2023/10/21 00:24:43;;;;;;;52.28;27.33;;;13.10;99.90;;;;;;5113542;28;20029;-65
2023/10/21 00:27:09;;;;;;;47.80;27.67;;;13.00;99.90;;;;;;5102996;28;20075;-65
2023/10/21 00:29:35;;;;;;;51.22;27.38;;;13.00;99.90;;;;;;5106985;28;20429;-65
2023/10/21 00:32:01;;;;;;;50.72;27.83;;;13.00;99.90;;;;;;5102734;28;20031;-65
2023/10/21 00:34:27;;;;;;;49.15;28.13;;;13.00;99.90;;;;;;5109211;28;20032;-65
2023/10/21 00:36:52;;;;;;;48.47;27.80;;;13.00;99.90;;;;;;5101182;28;20032;-65
2023/10/21 00:39:18;;;;;;;50.92;27.48;;;13.00;99.90;;;;;;5101946;28;20464;-65
2023/10/21 00:41:43;;;;;;;47.15;27.88;;;13.00;99.90;;;;;;5101682;28;20024;-66
2023/10/21 00:44:10;;;;;;;55.92;29.50;;;13.00;99.90;;;;;;5109446;28;20043;-64
2023/10/21 00:46:36;;;;;;;50.38;27.58;;;13.00;99.90;;;;;;5096591;28;20467;-66
2023/10/21 00:49:04;;;;;;;56.70;28.83;;;13.00;99.90;;;;;;5102697;28;20102;-64
2023/10/21 00:51:30;;;;;;;55.88;29.35;;;13.00;99.90;;;;;;5100074;28;20028;-64
2023/10/21 00:53:57;;;;;;;52.83;30.52;;;13.00;99.90;;;;;;5091632;28;20027;-67
2023/10/21 00:56:23;;;;;;;58.00;29.45;;;13.10;99.90;;;;;;5104497;27;20098;-64
2023/10/21 00:58:50;;;;;;;58.53;29.67;;;13.00;99.90;;;;;;5105445;28;20127;-64
2023/10/21 01:01:15;;;;;;;59.97;30.77;;;13.00;99.90;;;;;;5104407;28;20032;-64
2023/10/21 01:03:42;;;;;;;57.67;31.20;;;13.00;99.90;;;;;;5083067;28;20403;-64
2023/10/21 01:06:08;;;;;;;55.10;30.58;;;13.00;99.90;;;;;;5087666;28;20461;-65
2023/10/21 01:08:43;;;;;;;59.88;31.08;;;13.00;99.90;;;;;;5082841;28;20019;-65
2023/10/21 01:11:12;;;;;;;57.83;30.90;;;13.00;99.90;;;;;;5084347;28;20051;-65
2023/10/21 01:13:38;;;;;;;62.10;32.35;;;13.10;99.90;;;;;;5082685;28;20046;-65
2023/10/21 01:16:04;;;;;;;61.72;33.08;;;13.10;99.90;;;;;;5089654;28;20054;-65
2023/10/21 01:18:36;;;;;;;54.58;32.35;;;13.10;99.90;;;;;;5083680;28;20051;-65
2023/10/21 01:21:02;;;;;;;;;;;13.20;99.90;;;;;;5083716;28;20032;-65
2023/10/21 01:23:29;;;;;;;57.90;30.10;;;13.20;99.90;;;;;;5088655;28;19913;-65
2023/10/21 01:25:54;;;;;;;58.15;31.55;;;13.20;99.90;;;;;;5082909;28;20028;-65
2023/10/21 01:28:20;;;;;;;55.55;28.60;;;13.20;99.90;;;;;;5086046;28;20019;-65
2023/10/21 01:30:47;;;;;;;61.00;31.17;;;13.20;99.90;;;;;;5081620;28;20017;-66
2023/10/21 01:33:16;;;;;;;56.03;30.00;;;13.20;99.90;;;;;;5085543;28;20031;-67
2023/10/21 01:35:43;;;;;;;51.63;29.20;;;13.20;99.90;;;;;;5085475;28;20115;-66
2023/10/21 01:38:11;;;;;;;50.30;27.77;;;13.20;99.90;;;;;;5085636;28;20537;-66
2023/10/21 01:40:36;;;;;;;50.67;26.75;;;13.20;99.90;;;;;;5088819;28;20040;-66
2023/10/21 01:43:02;;;;;;;55.58;27.20;;;13.20;99.90;;;;;;5090286;28;20034;-65
2023/10/21 01:45:28;;;;;;;55.63;27.50;;;13.20;99.90;;;;;;5086204;28;20511;-66
2023/10/21 01:47:54;;;;;;;53.47;26.90;;;13.10;99.90;;;;;;5086753;28;20044;-66
2023/10/21 01:50:20;;;;;;;41.80;23.90;;;13.20;99.90;;;;;;5092864;28;20024;-66
2023/10/21 01:52:46;;;;;;;45.58;24.63;;;13.20;99.90;;;;;;5088237;28;20044;-66
2023/10/21 01:55:12;;;;;;;47.22;25.52;;;13.20;99.90;;;;;;5086959;28;20024;-66
2023/10/21 01:57:38;;;;;;;46.40;23.85;;;13.20;99.90;;;;;;5087195;28;20103;-66
2023/10/21 02:00:10;;;;;;;44.55;21.58;;;13.10;99.90;;;;;;5090845;28;20031;-66
2023/10/21 02:02:36;;;;;;;47.03;23.48;;;13.10;99.90;;;;;;5088463;28;20086;-66
2023/10/21 02:05:04;;;;;;;42.40;23.17;;;13.10;99.90;;;;;;5087911;28;20050;-66
2023/10/21 02:07:31;;;;;;;42.10;23.40;;;13.10;99.90;;;;;;5094022;28;20024;-67
2023/10/21 02:09:57;;;;;;;40.47;22.02;;;13.10;99.90;;;;;;5081228;28;20052;-66
2023/10/21 02:12:22;;;;;;;40.20;22.70;;;13.00;99.90;;;;;;5094488;28;20071;-66
2023/10/21 02:14:48;;;;;;;42.92;22.65;;;13.00;99.90;;;;;;5095593;28;20056;-66
2023/10/21 02:17:13;;;;;;;43.00;21.45;;;13.10;99.90;;;;;;5096217;28;20031;-66
2023/10/21 02:19:39;;;;;;;43.13;22.50;;;13.00;99.90;;;;;;5095364;28;20036;-66
2023/10/21 02:22:05;;;;;;;50.08;22.45;;;13.00;99.90;;;;;;5094459;28;20090;-65
2023/10/21 02:24:35;;;;;;;45.33;23.17;;;13.00;99.90;;;;;;5096810;28;20383;-64
2023/10/21 02:27:01;;;;;;;44.67;23.10;;;13.00;99.90;;;;;;5095348;28;20069;-65
2023/10/21 02:29:26;;;;;;;44.55;23.40;;;13.00;99.90;;;;;;5094901;28;20106;-65
2023/10/21 02:31:52;;;;;;;43.03;23.33;;;13.00;99.90;;;;;;5093401;28;20031;-64
2023/10/21 02:34:19;;;;;;;47.63;25.13;;;13.00;99.90;;;;;;5096011;28;20036;-64
2023/10/21 02:36:45;;;;;;;51.53;24.35;;;13.00;99.90;;;;;;5094592;28;20118;-65
2023/10/21 02:39:11;;;;;;;48.30;26.00;;;13.00;99.90;;;;;;5095085;28;20036;-64
2023/10/21 02:41:37;;;;;;;49.45;26.73;;;13.00;99.90;;;;;;5095037;28;20039;-65
2023/10/21 02:44:03;;;;;;;46.45;25.02;;;13.00;99.90;;;;;;5095825;28;20028;-64
2023/10/21 02:46:28;;;;;;;50.40;25.63;;;13.00;99.90;;;;;;5095631;28;20032;-65
2023/10/21 02:48:54;;;;;;;46.90;26.13;;;13.00;99.90;;;;;;5093443;28;20069;-64
2023/10/21 02:51:19;;;;;;;49.08;25.88;;;13.00;99.90;;;;;;5094528;28;20032;-65
2023/10/21 02:53:45;;;;;;;51.45;27.95;;;13.00;99.90;;;;;;5095907;28;20387;-65
2023/10/21 02:56:13;;;;;;;51.47;26.40;;;13.10;99.90;;;;;;5095330;28;20455;-64
2023/10/21 02:58:39;;;;;;;52.38;26.77;;;13.10;99.90;;;;;;5093394;28;20074;-64
2023/10/21 03:01:14;;;;;;;46.90;26.05;;;13.10;99.90;;;;;;5094484;28;20103;-65
2023/10/21 03:03:40;;;;;;;50.83;26.88;;;13.10;99.90;;;;;;5095467;28;20024;-64
2023/10/21 03:06:06;;;;;;;53.15;27.13;;;13.10;99.90;;;;;;5094953;28;20483;-65
2023/10/21 03:08:31;;;;;;;55.60;26.55;;;13.10;99.90;;;;;;5093257;28;20027;-65
2023/10/21 03:10:57;;;;;;;43.45;25.20;;;13.10;99.90;;;;;;5099745;28;20028;-65
2023/10/21 03:13:23;;;;;;;45.53;27.48;;;13.10;99.90;;;;;;5095215;28;20024;-65
2023/10/21 03:15:48;;;;;;;45.60;25.98;;;13.10;99.90;;;;;;5095452;28;20035;-65
2023/10/21 03:18:14;;;;;;;43.25;23.92;;;13.10;99.90;;;;;;5094042;28;20028;-65
2023/10/21 03:20:40;;;;;;;50.05;25.70;;;13.10;99.90;;;;;;5092526;28;20032;-65
2023/10/21 03:23:05;;;;;;;49.90;25.85;;;13.10;99.90;;;;;;5093500;28;20384;-65
2023/10/21 03:25:33;;;;;;;44.95;25.85;;;13.10;99.90;;;;;;5094955;28;20035;-65
2023/10/21 03:27:58;;;;;;;43.05;24.33;;;13.10;99.90;;;;;;5094945;28;20030;-65
2023/10/21 03:30:24;;;;;;;43.33;26.40;;;13.10;99.90;;;;;;5093015;28;20027;-65
2023/10/21 03:32:50;;;;;;;46.83;26.58;;;13.10;99.90;;;;;;5093687;28;20116;-65
2023/10/21 03:35:15;;;;;;;45.15;25.00;;;13.10;99.90;;;;;;5094506;28;20055;-65
2023/10/21 03:37:41;;;;;;;45.65;24.95;;;13.10;99.90;;;;;;5094715;28;20028;-65
2023/10/21 03:40:10;;;;;;;44.22;24.50;;;13.10;99.90;;;;;;5094696;28;20039;-65
2023/10/21 03:42:38;;;;;;;43.63;24.80;;;13.00;99.90;;;;;;5092875;28;20032;-65
2023/10/21 03:45:05;;;;;;;44.05;24.33;;;13.00;99.90;;;;;;5094712;28;20040;-65
2023/10/21 03:47:31;;;;;;;43.67;24.95;;;13.00;99.90;;;;;;5092610;28;20444;-65
2023/10/21 03:49:57;;;;;;;41.35;24.77;;;13.00;99.90;;;;;;5094191;28;20103;-65
2023/10/21 03:52:23;;;;;;;38.65;23.67;;;12.90;99.90;;;;;;5094699;28;20052;-65
2023/10/21 03:54:48;;;;;;;40.45;23.75;;;12.90;99.90;;;;;;5094775;28;20084;-65
2023/10/21 03:57:14;;;;;;;41.20;24.30;;;12.90;99.90;;;;;;5093499;28;20031;-65
2023/10/21 03:59:39;;;;;;;44.72;23.30;;;12.90;99.90;;;;;;5092763;28;20044;-65
2023/10/21 04:02:05;;;;;;;42.15;22.83;;;12.80;99.90;;;;;;5093476;28;20028;-65
2023/10/21 04:04:31;;;;;;;40.25;22.20;;;12.80;99.90;;;;;;5094568;28;20056;-65
2023/10/21 04:06:56;;;;;;;45.05;23.67;;;12.80;99.90;;;;;;5093744;28;20523;-65
2023/10/21 04:09:22;;;;;;;41.47;22.65;;;12.80;99.90;;;;;;5092761;28;20456;-65
2023/10/21 04:11:48;;;;;;;41.03;23.40;;;12.70;99.90;;;;;;5094543;28;20028;-65
2023/10/21 04:14:14;;;;;;;46.13;23.45;;;12.70;99.90;;;;;;5094218;28;20035;-65
2023/10/21 04:16:44;;;;;;;40.80;23.15;;;12.80;99.90;;;;;;5092274;28;20470;-66
2023/10/21 04:19:12;;;;;;;42.53;24.10;;;12.70;99.90;;;;;;5093415;28;20044;-66
2023/10/21 04:21:38;;;;;;;43.78;24.13;;;12.70;99.90;;;;;;5074297;28;20476;-65
2023/10/21 04:24:03;;;;;;;40.63;22.55;;;12.70;99.90;;;;;;5092647;28;20036;-65
2023/10/21 04:26:30;;;;;;;35.90;22.92;;;12.70;99.90;;;;;;5093088;28;20024;-65
2023/10/21 04:28:55;;;;;;;43.35;23.90;;;12.70;99.90;;;;;;5093318;28;20089;-65
2023/10/21 04:31:21;;;;;;;44.97;24.80;;;12.70;99.90;;;;;;5093004;28;20048;-65
2023/10/21 04:33:46;;;;;;;41.35;25.52;;;12.70;99.90;;;;;;5094249;28;20024;-65
2023/10/21 04:36:16;;;;;;;46.28;24.67;;;12.70;99.90;;;;;;5092241;28;20032;-65
2023/10/21 04:38:43;;;;;;;45.13;25.13;;;12.70;99.90;;;;;;5093149;28;20047;-65
2023/10/21 04:41:10;;;;;;;47.15;25.90;;;12.70;99.90;;;;;;5093130;28;20032;-65
2023/10/21 04:43:36;;;;;;;40.22;24.42;;;12.70;99.90;;;;;;5093815;28;20066;-65
2023/10/21 04:46:01;;;;;;;46.33;25.80;;;12.70;99.90;;;;;;5092050;28;20060;-65
2023/10/21 04:48:27;;;;;;;44.25;25.40;;;12.70;99.90;;;;;;5091549;28;20028;-65
2023/10/21 04:50:52;;;;;;;46.05;27.38;;;12.70;99.90;;;;;;5093412;28;20043;-65
2023/10/21 04:53:18;;;;;;;47.20;27.70;;;12.70;99.90;;;;;;5093478;28;20052;-65
2023/10/21 04:55:43;;;;;;;51.25;27.08;;;12.70;99.90;;;;;;5093913;28;20456;-66
2023/10/21 04:58:09;;;;;;;43.28;26.40;;;12.70;99.90;;;;;;5092952;28;20047;-65
2023/10/21 05:00:34;;;;;;;44.22;26.67;;;12.70;99.90;;;;;;5092790;28;20059;-66
2023/10/21 05:03:00;;;;;;;47.65;28.13;;;12.70;99.90;;;;;;5093943;28;20036;-66
2023/10/21 05:05:25;;;;;;;42.58;25.95;;;12.70;99.90;;;;;;5093745;28;20028;-65
2023/10/21 05:07:51;;;;;;;42.60;26.40;;;12.80;99.90;;;;;;5093480;28;20028;-66
2023/10/21 05:10:18;;;;;;;41.97;25.52;;;12.80;99.90;;;;;;5092118;28;20479;-66
2023/10/21 05:12:43;;;;;;;44.15;27.80;;;12.80;99.90;;;;;;5093014;28;20114;-65
2023/10/21 05:15:09;;;;;;;48.83;28.77;;;12.80;99.90;;;;;;5093447;28;20106;-66
2023/10/21 05:17:35;;;;;;;43.42;26.80;;;12.80;99.90;;;;;;5093490;28;20464;-65
2023/10/21 05:20:01;;;;;;;47.72;28.33;;;12.80;99.90;;;;;;5091507;28;20135;-66
2023/10/21 05:22:26;;;;;;;46.10;26.88;;;12.90;99.90;;;;;;5093261;28;20024;-66
2023/10/21 05:24:52;;;;;;;43.88;26.90;;;12.90;99.90;;;;;;5093382;28;20035;-65
2023/10/21 05:27:17;;;;;;;48.25;27.98;;;13.00;99.90;;;;;;5093255;28;20103;-65
2023/10/21 05:29:43;;;;;;;45.50;26.13;;;13.00;99.90;;;;;;5092529;28;20028;-65
2023/10/21 05:32:09;;;;;;;41.15;25.67;;;13.00;99.90;;;;;;5103200;28;20031;-65
2023/10/21 05:34:34;;;;;;;50.63;27.05;;;13.00;99.90;;;;;;5100465;28;20031;-66
2023/10/21 05:37:00;;;;;;;37.20;21.55;;;13.00;99.90;;;;;;5102582;28;20491;-65
2023/10/21 05:39:25;;;;;;;39.28;25.38;;;13.00;99.90;;;;;;5102070;28;20116;-66
2023/10/21 05:41:51;;;;;;;43.83;23.55;;;13.00;99.90;;;;;;5102943;28;20019;-65
2023/10/21 05:44:16;;;;;;;35.85;20.90;;;13.10;99.90;;;;;;5103389;28;20468;-65
2023/10/21 05:46:42;;;;;;;39.83;22.13;;;13.10;99.90;;;;;;5100629;28;20069;-66
2023/10/21 05:49:07;;;;;;;37.80;20.30;;;13.10;99.90;;;;;;5099407;28;20074;-65
2023/10/21 05:51:33;;;;;;;38.45;20.83;;;13.20;99.90;;;;;;5099817;28;20020;-66
2023/10/21 05:53:59;;;;;;;35.28;20.20;;;13.20;99.90;;;;;;5103177;28;20024;-65
2023/10/21 05:56:24;;;;;;;35.15;20.27;;;13.10;99.90;;;;;;5101942;28;20024;-65
2023/10/21 05:58:50;;;;;;;38.72;19.23;;;13.20;99.90;;;;;;5100121;28;20123;-65
2023/10/21 06:01:16;;;;;;;37.60;20.50;;;13.20;99.90;;;;;;5102505;28;20138;-66
2023/10/21 06:03:41;;;;;;;33.65;20.67;;;13.20;99.90;;;;;;5102347;28;20051;-65
2023/10/21 06:06:08;;;;;;;31.90;17.67;;;13.20;99.90;;;;;;5101127;28;20039;-65
2023/10/21 06:08:33;;;;;;;35.72;18.27;;;13.20;99.90;;;;;;5100459;28;20078;-65
2023/10/21 06:10:59;;;;;;;29.35;17.65;;;13.20;99.90;;;;;;5092154;28;20020;-65
2023/10/21 06:13:25;;;;;;;36.13;18.63;;;13.20;99.90;;;;;;5082237;28;20365;-65
2023/10/21 06:15:51;;;;;;;29.35;17.90;;;13.30;99.90;;;;;;5084629;28;20381;-66
2023/10/21 06:18:17;;;;;;;34.72;17.77;;;13.30;99.90;;;;;;5085335;28;20058;-65
2023/10/21 06:20:49;;;;;;;35.33;17.35;;;13.30;99.90;;;;;;5088453;28;20035;-66
2023/10/21 06:23:16;;;;;;;28.60;16.73;;;13.40;99.90;;;;;;5087910;28;20020;-66
2023/10/21 06:25:42;;;;;;;32.47;16.67;;;13.40;99.90;;;;;;5090484;28;20480;-66
2023/10/21 06:28:07;;;;;;;29.85;18.42;;;13.40;99.90;;;;;;5086073;28;20055;-65
2023/10/21 06:30:36;;;;;;;26.38;16.08;;;13.50;99.90;;;;;;5086138;28;20024;-66
2023/10/21 06:33:03;;;;;;;32.55;16.85;;;13.50;99.90;;;;;;5088590;28;20056;-65
2023/10/21 06:35:28;;;;;;;29.48;16.35;;;13.50;99.90;;;;;;5087852;28;20396;-65
2023/10/21 06:37:54;;;;;;;32.10;16.27;;;13.50;99.90;;;;;;5094126;28;20028;-65
2023/10/21 06:40:21;;;;;;;31.27;16.73;;;13.50;99.90;;;;;;5083979;28;20043;-66
2023/10/21 06:42:47;;;;;;;29.65;16.67;;;13.50;99.90;;;;;;5088136;28;20024;-66
2023/10/21 06:45:12;;;;;;;31.73;19.70;;;13.50;99.90;;;;;;5088689;28;20490;-65
2023/10/21 06:47:38;;;;;;;28.30;17.35;;;13.50;99.90;;;;;;5086438;28;20026;-66
2023/10/21 06:50:04;;;;;;;27.17;15.93;;;13.50;99.90;;;;;;5086356;28;20395;-66
2023/10/21 06:52:31;;;;;;;30.50;17.63;;;13.50;99.90;;;;;;5085172;28;20036;-65
2023/10/21 06:54:57;;;;;;;27.40;16.33;;;13.50;99.90;;;;;;5086846;28;20115;-66
2023/10/21 06:57:23;;;;;;;29.02;16.55;;;13.60;99.90;;;;;;5086029;28;20107;-66
2023/10/21 06:59:52;;;;;;;26.58;15.68;;;13.60;99.90;;;;;;5087886;28;20054;-65
2023/10/21 07:02:17;;;;;;;32.22;17.38;;;13.60;99.90;;;;;;5089781;28;20020;-66
2023/10/21 07:04:43;;;;;;;28.48;16.00;;;13.70;99.90;;;;;;5087516;28;20053;-65
2023/10/21 07:07:10;;;;;;;25.88;16.02;;;13.70;99.90;;;;;;5089485;28;20081;-66
2023/10/21 07:09:37;;;;;;;27.45;15.45;;;13.70;99.90;;;;;;5083553;28;20095;-65
2023/10/21 07:12:03;;;;;;;27.92;15.35;;;13.80;99.90;;;;;;5088405;28;20062;-66
2023/10/21 07:14:29;;;;;;;27.52;14.80;;;13.80;99.90;;;;;;5082852;28;20426;-66
2023/10/21 07:16:56;;;;;;;29.85;15.20;;;13.80;99.90;;;;;;5084149;28;20028;-66
2023/10/21 07:19:22;;;;;;;26.52;14.50;;;13.90;99.90;;;;;;5087258;28;20073;-66
2023/10/21 07:21:51;;;;;;;25.08;14.32;;;14.00;99.90;;;;;;5085109;28;20024;-65
2023/10/21 07:24:17;;;;;;;23.40;14.63;;;14.00;99.90;;;;;;5085131;28;20083;-66
2023/10/21 07:26:43;;;;;;;25.13;13.55;;;14.00;99.90;;;;;;5084727;28;20028;-66
2023/10/21 07:29:08;;;;;;;25.58;12.63;;;14.00;99.90;;;;;;5086770;28;20452;-66
2023/10/21 07:31:34;;;;;;;26.83;12.98;;;14.00;99.90;;;;;;5085993;28;20453;-65
2023/10/21 07:34:00;;;;;;;22.88;11.85;;;13.90;99.90;;;;;;5080045;28;20051;-65
2023/10/21 07:36:26;;;;;;;26.02;12.70;;;14.00;99.90;;;;;;5074157;28;20060;-66
2023/10/21 07:38:53;;;;;;;23.75;12.07;;;13.90;99.90;;;;;;5091546;28;20037;-66
2023/10/21 07:41:19;;;;;;;22.38;12.10;;;13.90;99.90;;;;;;5085715;28;20036;-65
2023/10/21 07:43:44;;;;;;;21.75;12.55;;;13.90;99.90;;;;;;5088247;28;20060;-65
2023/10/21 07:46:10;;;;;;;20.88;11.95;;;13.90;99.90;;;;;;5083334;28;20063;-65
2023/10/21 07:48:36;;;;;;;23.63;11.77;;;14.00;99.90;;;;;;5084030;28;20020;-65
2023/10/21 07:51:01;;;;;;;22.23;12.52;;;13.90;99.90;;;;;;5085109;28;20028;-65
2023/10/21 07:53:29;;;;;;;22.95;12.02;;;13.90;99.90;;;;;;5082171;28;20048;-66
2023/10/21 07:55:55;;;;;;;27.30;13.13;;;13.90;99.90;;;;;;5093608;28;20032;-65
2023/10/21 07:58:22;;;;;;;20.77;10.93;;;13.90;99.90;;;;;;5093832;28;20054;-65
2023/10/21 08:00:47;;;;;;;19.40;11.77;;;13.80;99.90;;;;;;5091826;28;20078;-65
2023/10/21 08:03:14;;;;;;;22.45;12.38;;;13.90;99.90;;;;;;5094572;28;20024;-65
2023/10/21 08:05:40;;;;;;;19.45;11.15;;;13.90;99.90;;;;;;5094532;28;20107;-65
2023/10/21 08:08:05;;;;;;;21.05;12.35;;;13.90;99.90;;;;;;5092678;28;20115;-65
2023/10/21 08:10:31;;;;;;;19.08;11.00;;;13.90;99.90;;;;;;5091836;28;20032;-65
2023/10/21 08:12:57;;;;;;;20.10;11.60;;;13.90;99.90;;;;;;5094195;28;20016;-66
2023/10/21 08:15:22;;;;;;;22.65;12.05;;;13.90;99.90;;;;;;5094570;28;20038;-65
2023/10/21 08:17:48;;;;;;;20.33;11.05;;;14.00;99.90;;;;;;5093375;28;20036;-65
2023/10/21 08:20:14;;;;;;;21.98;11.32;;;14.00;99.90;;;;;;5092111;28;20040;-65
2023/10/21 08:22:40;;;;;;;24.13;11.77;;;14.10;99.90;;;;;;5092529;28;20016;-66
2023/10/21 08:25:07;;;;;;;20.55;11.13;;;14.10;99.90;;;;;;5093362;28;20109;-65
2023/10/21 08:27:33;;;;;;;19.00;9.95;;;14.20;99.90;;;;;;5093802;28;20028;-66
2023/10/21 08:29:59;;;;;;;23.98;11.60;;;14.30;99.90;;;;;;5095224;28;20073;-65
2023/10/21 08:32:24;;;;;;;22.30;11.60;;;14.40;99.90;;;;;;5083010;28;20024;-65
2023/10/21 08:34:50;;;;;;;19.38;10.40;;;14.40;99.90;;;;;;5073676;28;20021;-64
2023/10/21 08:37:16;;;;;;;18.65;10.18;;;14.50;99.90;;;;;;5073176;28;20025;-65
2023/10/21 08:39:43;;;;;;;16.83;9.30;;;14.50;99.90;;;;;;5073388;28;20098;-65
2023/10/21 08:42:09;;;;;;;17.63;9.50;;;14.40;99.90;;;;;;5073986;28;20059;-65
2023/10/21 08:44:36;;;;;;;17.60;8.75;;;14.40;99.90;;;;;;5084682;28;20024;-65
2023/10/21 08:47:05;;;;;;;18.58;9.35;;;14.30;99.90;;;;;;5093228;28;20031;-66
2023/10/21 08:49:33;;;;;;;15.88;7.72;;;14.30;99.90;;;;;;5093527;28;20379;-66
2023/10/21 08:52:00;;;;;;;16.30;7.25;;;14.20;99.90;;;;;;5093562;28;20055;-67
2023/10/21 08:54:26;;;;;;;12.38;6.45;;;14.10;99.90;;;;;;5091340;28;20062;-66
2023/10/21 08:56:52;;;;;;;13.05;6.38;;;14.00;99.90;;;;;;5084658;28;20448;-67
2023/10/21 08:59:17;;;;;;;11.73;6.18;;;14.00;99.90;;;;;;5091688;28;20065;-67
2023/10/21 09:01:45;;;;;;;14.85;6.35;;;14.00;99.90;;;;;;5092154;28;20044;-67
2023/10/21 09:04:13;;;;;;;13.00;7.38;;;14.00;99.90;;;;;;5093633;28;20024;-67
2023/10/21 09:06:58;;;;;;;12.32;5.53;;;14.00;99.90;;;;;;5089545;28;20063;-67
2023/10/21 09:09:26;;;;;;;12.90;6.03;;;13.90;99.90;;;;;;5093126;28;20165;-67
2023/10/21 09:12:15;;;;;;;12.88;6.18;;;13.80;99.90;;;;;;5091727;28;20058;-67
2023/10/21 09:15:01;;;;;;;15.38;6.20;;;13.80;99.90;;;;;;5092940;28;20028;-66
2023/10/21 09:17:38;;;;;;;12.48;6.13;;;13.80;99.90;;;;;;5092860;28;20050;-66
2023/10/21 09:20:13;;;;;;;13.75;9.05;;;13.80;99.90;;;;;;5090972;28;20051;-66
2023/10/21 09:22:40;;;;;;;11.68;6.43;;;13.90;99.90;;;;;;5098793;28;20036;-66
2023/10/21 09:25:19;;;;;;;6.85;3.85;;;14.20;99.90;;;;;;5085635;28;20028;-65
2023/10/21 09:27:52;;;;;;;10.07;5.05;;;14.20;99.90;;;;;;5087700;28;20057;-65
2023/10/21 09:30:20;;;;;;;16.88;8.15;;;14.30;99.90;;;;;;5095914;28;20036;-66
2023/10/21 09:32:49;;;;;;;35.17;19.15;;;14.30;99.90;;;;;;5095492;28;20020;-65
2023/10/21 09:35:29;;;;;;;15.77;7.78;;;14.30;99.90;;;;;;5096780;28;20024;-65
2023/10/21 09:37:54;;;;;;;38.50;23.25;;;14.30;99.90;;;;;;5102737;28;20035;-65
2023/10/21 09:40:24;;;;;;;16.58;8.00;;;14.30;99.90;;;;;;5099652;28;20088;-65
2023/10/21 09:42:52;;;;;;;13.60;8.13;;;14.20;99.90;;;;;;5098882;28;20161;-64
2023/10/21 09:45:18;;;;;;;26.10;15.63;;;14.20;99.90;;;;;;5097956;28;20064;-65
2023/10/21 09:47:45;;;;;;;11.98;6.15;;;14.30;99.90;;;;;;5102012;28;20081;-65
2023/10/21 09:50:13;;;;;;;7.55;4.60;;;14.30;99.90;;;;;;5094511;28;20025;-65
2023/10/21 09:53:05;;;;;;;30.65;19.63;;;14.30;99.90;;;;;;5100602;28;20381;-66
2023/10/21 09:55:31;;;;;;;10.13;5.97;;;14.30;99.90;;;;;;5098303;28;20132;-66
2023/10/21 09:57:57;;;;;;;5.82;2.50;;;14.30;99.90;;;;;;5098699;28;20404;-65
2023/10/21 10:00:24;;;;;;;12.60;7.57;;;14.30;99.90;;;;;;5102554;28;20048;-65
2023/10/21 10:02:53;;;;;;;7.85;3.38;;;14.40;99.90;;;;;;5103006;28;20028;-65
2023/10/21 10:05:20;;;;;;;7.18;3.03;;;14.40;99.90;;;;;;5106476;28;20043;-66
2023/10/21 10:07:47;;;;;;;3.28;2.33;;;14.60;99.90;;;;;;5104199;28;20035;-66
2023/10/21 10:10:15;;;;;;;4.55;2.00;;;14.70;99.90;;;;;;5103711;28;20395;-65
2023/10/21 10:12:44;;;;;;;3.10;2.00;;;14.80;99.90;;;;;;5094550;28;20027;-65
2023/10/21 10:15:32;;;;;;;4.03;1.77;;;15.00;99.90;;;;;;5079879;28;20033;-65
2023/10/21 10:17:59;;;;;;;6.05;2.50;;;15.30;99.90;;;;;;5078630;28;20021;-65
2023/10/21 10:20:26;;;;;;;4.53;1.70;;;15.70;99.90;;;;;;5075735;28;20047;-65
2023/10/21 10:23:19;;;;;;;3.30;1.65;;;15.90;99.90;;;;;;5098412;28;20020;-65
2023/10/21 10:25:52;;;;;;;5.60;2.53;;;16.00;99.90;;;;;;5093467;28;20094;-65
2023/10/21 10:28:27;;;;;;;5.47;2.78;;;16.10;99.90;;;;;;5113781;28;20028;-65
2023/10/21 10:30:54;;;;;;;6.53;2.35;;;16.40;99.90;;;;;;5085052;28;20165;-65
2023/10/21 10:33:38;;;;;;;6.07;2.70;;;16.50;99.90;;;;;;5095308;28;20490;-65
2023/10/21 10:36:06;;;;;;;5.55;1.60;;;16.60;99.90;;;;;;5095800;28;20032;-65
2023/10/21 10:38:41;;;;;;;4.43;1.60;;;16.80;99.90;;;;;;5096228;28;20024;-65
2023/10/21 10:41:11;;;;;;;6.10;1.55;;;17.20;99.90;;;;;;5096309;28;20118;-65
2023/10/21 10:43:43;;;;;;;3.15;1.77;;;17.60;99.90;;;;;;5094386;28;20105;-65
2023/10/21 10:46:09;;;;;;;3.22;1.60;;;17.70;99.90;;;;;;5092156;28;20105;-65
2023/10/21 10:48:34;;;;;;;5.00;1.30;;;17.70;99.90;;;;;;5094487;28;20380;-65
2023/10/21 10:51:13;;;;;;;5.43;1.42;;;17.60;99.90;;;;;;5094997;28;20081;-65
2023/10/21 10:53:39;;;;;;;2.92;1.13;;;17.50;99.90;;;;;;5094710;28;20056;-64
2023/10/21 10:56:09;;;;;;;3.85;1.20;;;17.40;99.90;;;;;;5093182;28;20369;-66
2023/10/21 10:58:35;;;;;;;7.55;1.88;;;17.40;99.90;;;;;;5092307;28;20427;-65
2023/10/21 11:01:01;;;;;;;5.10;1.70;;;17.50;99.90;;;;;;5094923;28;20498;-65
2023/10/21 11:03:35;;;;;;;8.38;1.63;;;17.50;99.90;;;;;;5095757;28;20020;-64
2023/10/21 11:06:03;;;;;;;4.97;1.60;;;17.40;99.90;;;;;;5092271;28;20059;-67
2023/10/21 11:08:30;;;;;;;6.20;1.80;;;17.30;99.90;;;;;;5095647;28;20081;-65
2023/10/21 11:11:03;;;;;;;6.30;1.30;;;17.10;99.90;;;;;;5094988;28;20028;-65
2023/10/21 11:13:29;;;;;;;6.97;1.77;;;17.10;99.90;;;;;;5095414;28;20032;-65
2023/10/21 11:15:55;;;;;;;5.05;1.83;;;17.20;99.90;;;;;;5092847;28;20106;-65
2023/10/21 11:18:21;;;;;;;4.68;1.17;;;17.20;99.90;;;;;;5095975;28;20032;-65
2023/10/21 11:20:54;;;;;;;5.45;1.58;;;17.20;99.90;;;;;;5095417;28;20050;-65
2023/10/21 11:23:28;;;;;;;7.25;1.35;;;17.20;99.90;;;;;;5095618;28;20028;-65
2023/10/21 11:25:55;;;;;;;8.50;1.90;;;17.30;99.90;;;;;;5096759;28;20036;-66
2023/10/21 11:28:21;;;;;;;4.47;1.50;;;17.40;99.90;;;;;;5095076;28;20525;-64
2023/10/21 11:30:48;;;;;;;3.63;0.93;;;17.50;99.90;;;;;;5095583;28;20032;-64
2023/10/21 11:33:15;;;;;;;2.65;1.30;;;17.90;99.90;;;;;;5095080;28;20082;-65
2023/10/21 11:35:44;;;;;;;5.45;1.15;;;18.20;99.90;;;;;;5094113;28;20024;-66
2023/10/21 11:38:12;;;;;;;5.53;0.98;;;18.40;99.90;;;;;;5094019;28;20032;-66
2023/10/21 11:40:38;;;;;;;3.63;1.40;;;18.20;99.90;;;;;;5094567;28;20065;-66
2023/10/21 11:43:08;;;;;;;5.07;1.35;;;18.10;99.90;;;;;;5095196;28;20114;-66
2023/10/21 11:45:34;;;;;;;9.32;1.50;;;17.90;99.90;;;;;;5093846;28;20118;-65
2023/10/21 11:48:01;;;;;;;5.40;1.55;;;17.90;99.90;;;;;;5094345;28;20043;-65
2023/10/21 11:50:33;;;;;;;6.03;1.33;;;17.90;99.90;;;;;;5094989;28;20020;-65
2023/10/21 11:53:05;;;;;;;;;;;18.20;99.90;;;;;;5095204;28;20048;-66
2023/10/21 11:56:00;;;;;;;5.72;1.30;;;18.60;99.90;;;;;;5094777;28;20356;-65
2023/10/21 12:02:19;;;;;;;4.88;1.35;;;18.40;99.90;;;;;;5094139;28;20051;-66
2023/10/21 12:10:39;;;;;;;6.53;1.38;;;19.30;99.90;;;;;;5094320;28;20073;-65
2023/10/21 12:18:13;;;;;;;7.20;1.50;;;18.20;99.90;;;;;;5094524;28;20062;-66
2023/10/21 12:24:00;;;;;;;4.97;1.15;;;18.00;99.90;;;;;;5093400;28;20042;-66
2023/10/21 12:34:20;;;;;;;8.70;1.40;;;17.40;99.90;;;;;;5094247;28;20495;-66
2023/10/21 12:42:34;;;;;;;8.95;1.60;;;17.40;99.90;;;;;;5092022;28;20059;-65
2023/10/21 12:45:03;;;;;;;7.53;1.75;;;17.30;99.90;;;;;;5093521;28;20025;-65
2023/10/21 12:47:29;;;;;;;6.45;2.35;;;17.10;99.90;;;;;;5092729;28;20458;-65
2023/10/21 12:49:57;;;;;;;7.22;1.70;;;17.00;99.90;;;;;;5091944;28;20043;-64
2023/10/21 12:52:23;;;;;;;9.02;2.00;;;17.00;99.90;;;;;;5093412;28;20047;-65
2023/10/21 12:54:51;;;;;;;8.13;1.95;;;17.00;99.90;;;;;;5093439;28;20479;-66
2023/10/21 12:57:17;;;;;;;7.55;1.73;;;17.10;99.90;;;;;;5093002;28;20028;-65
2023/10/21 12:59:42;;;;;;;12.35;1.80;;;17.20;99.90;;;;;;5092921;28;20050;-64
2023/10/21 13:02:11;;;;;;;11.60;2.50;;;17.10;99.90;;;;;;5094334;28;20028;-66
2023/10/21 13:04:38;;;;;;;5.97;1.77;;;17.10;99.90;;;;;;5103255;28;20521;-65